sim
Sign-in with your pilot id or email,
or register
Callsign
Passwort

Schedule Details

Flight Number: DLH1608
Departure: Munich Airport (EDDM) at 10:30
Arrival: Katowice International Airport (EPKT) at 11:50
Route: Lufthansa Passenger Schedule. Enter filed route here before submitting Pirep.

Weather Information
Getting current METAR information for EDDM 241220Z VRB03KT 9999 FEW033 21/13 Q1009 NOSIG
Getting current METAR information for EPKT 241200Z 20009KT 160V220 9999 FEW023 21/15 Q1009

Schedule Frequency

Route Map